KDTS Airport Information

Runway Information
Runway 14 Length 4999 ft width 100 ft
Elevation 22 ft Threshold 0 ft Heading 142
Runway 32 Length 4999 ft Width 100 ft
Elevation 21 ft Threshold 0 ft Heading 322
Airport Frequencies
Type A/D Name EGLIN APP/ Frequency 132.1 MHZ
Type ASOS Name ASOS Frequency 133.925 MHZ
Type CLD Name EGLIN CLNC Frequency 121.6 MHZ
Type UNIC Name UNICOM Frequency 123.075 MHZ
Airport Navaids
Airport Weather Information & NOTAM
ADDS - METARS form results

(0848 UTC 15 December 2018)
Data provider http://aviationweather.gov/metar/data/
 
METAR text: KDTS 150753Z AUTO 25008G16KT 220V280 10SM FEW030 SCT037 15/09 A2993 RMK AO2 SLP133 T01500089
Conditions at: KDTS (DESTIN , FL, US) observed 0753 UTC 15 December 2018
Temperature: 15.0°C (59°F)
Dewpoint: 8.9°C (48°F) [RH = 67%]
Pressure (altimeter): 29.93 inches Hg (1013.6 mb)
[Sea-level pressure: 1013.3 mb]
Winds: from the WSW (250 degrees) at 9 MPH (8 knots; 4.1 m/s)
gusting to 18 MPH (16 knots; 8.2 m/s)
Visibility: 10 or more miles (16+ km)
Ceiling: at least 12,000 feet AGL
Clouds: few clouds at 3000 feet AGL
scattered clouds at 3700 feet AGL
Weather: automated observation with no human augmentation;
there may or may not be significant weather present at this time